createdAt,value
2018-05-08T00:00:39.907Z,17.30
2018-05-08T00:03:13.559Z,17.40
2018-05-08T00:05:47.497Z,17.30
2018-05-08T00:08:21.990Z,17.40
2018-05-08T00:10:55.723Z,17.40
2018-05-08T00:13:29.211Z,17.30
2018-05-08T00:16:02.739Z,17.20
2018-05-08T00:18:36.224Z,17.20
2018-05-08T00:21:09.739Z,16.90
2018-05-08T00:23:43.518Z,17.00
2018-05-08T00:26:17.415Z,16.90
2018-05-08T00:28:51.827Z,16.70
2018-05-08T00:31:25.550Z,16.60
2018-05-08T00:33:59.242Z,16.60
2018-05-08T00:36:32.779Z,16.70
2018-05-08T00:39:06.359Z,16.60
2018-05-08T00:41:40.369Z,16.60
2018-05-08T00:44:14.170Z,16.50
2018-05-08T00:46:47.855Z,16.50
2018-05-08T00:49:21.591Z,16.40
2018-05-08T00:51:55.383Z,16.30
2018-05-08T00:54:41.071Z,16.30
2018-05-08T00:57:14.874Z,16.30
2018-05-08T00:59:48.578Z,16.30
2018-05-08T01:02:22.278Z,16.30
2018-05-08T01:04:56.014Z,16.20
2018-05-08T01:07:29.691Z,16.20
2018-05-08T01:10:03.450Z,16.20
2018-05-08T01:12:37.006Z,16.20
2018-05-08T01:15:10.581Z,16.20
2018-05-08T01:17:44.176Z,16.20
2018-05-08T01:20:18.584Z,16.10
2018-05-08T01:22:52.408Z,16.10
2018-05-08T01:25:26.015Z,16.10
2018-05-08T01:27:59.538Z,16.10
2018-05-08T01:30:33.186Z,16.10
2018-05-08T01:33:06.927Z,16.10
2018-05-08T01:35:40.528Z,16.20
2018-05-08T01:38:14.326Z,16.20
2018-05-08T01:40:47.915Z,16.10
2018-05-08T01:43:21.600Z,16.10
2018-05-08T01:45:55.208Z,16.10
2018-05-08T01:48:28.935Z,16.00
2018-05-08T01:51:02.439Z,16.00
2018-05-08T01:53:36.137Z,16.00
2018-05-08T01:56:10.767Z,16.00
2018-05-08T01:58:44.398Z,16.00
2018-05-08T02:01:18.778Z,16.00
2018-05-08T02:03:53.088Z,16.00
2018-05-08T02:06:26.598Z,16.00
2018-05-08T02:09:00.411Z,15.90
2018-05-08T02:11:34.413Z,15.90
2018-05-08T02:14:09.658Z,15.80
2018-05-08T02:16:43.147Z,15.80
2018-05-08T02:19:16.659Z,15.80
2018-05-08T02:21:50.463Z,15.80
2018-05-08T02:24:24.262Z,15.70
2018-05-08T02:26:57.960Z,15.80
2018-05-08T02:29:31.675Z,15.70
2018-05-08T02:32:05.478Z,15.60
2018-05-08T02:34:39.278Z,15.50
2018-05-08T02:37:13.699Z,15.50
2018-05-08T02:39:47.306Z,15.40
2018-05-08T02:42:21.003Z,15.30
2018-05-08T02:44:54.522Z,15.30
2018-05-08T02:47:28.930Z,15.30
2018-05-08T02:50:02.727Z,15.20
2018-05-08T02:52:36.558Z,15.20
2018-05-08T02:55:10.061Z,15.10
2018-05-08T02:57:43.746Z,15.10
2018-05-08T03:00:17.466Z,15.10
2018-05-08T03:02:51.147Z,15.00
2018-05-08T03:05:24.952Z,14.90
2018-05-08T03:07:59.238Z,14.90
2018-05-08T03:10:32.976Z,14.90
2018-05-08T03:13:06.779Z,14.90
2018-05-08T03:15:41.195Z,14.90
2018-05-08T03:18:15.002Z,14.90
2018-05-08T03:20:48.601Z,14.80
2018-05-08T03:23:22.270Z,14.80
2018-05-08T03:25:55.778Z,14.80
2018-05-08T03:28:29.274Z,14.80
2018-05-08T03:31:03.007Z,14.80
2018-05-08T03:33:36.812Z,14.70
2018-05-08T03:36:11.124Z,14.60
2018-05-08T03:38:44.911Z,14.60
2018-05-08T03:41:18.542Z,14.60
2018-05-08T03:43:52.107Z,14.50
2018-05-08T03:46:25.818Z,14.50
2018-05-08T03:48:59.328Z,14.50
2018-05-08T03:51:32.918Z,14.50
2018-05-08T03:54:06.433Z,14.40
2018-05-08T03:56:40.056Z,14.30
2018-05-08T03:59:13.838Z,14.40
2018-05-08T04:02:00.138Z,14.40
2018-05-08T04:04:45.619Z,14.20
2018-05-08T04:07:31.098Z,14.20
2018-05-08T04:10:04.703Z,14.30
2018-05-08T04:12:38.407Z,14.30
2018-05-08T04:15:11.988Z,14.30
2018-05-08T04:17:45.535Z,14.30
2018-05-08T04:20:19.187Z,14.30
2018-05-08T04:22:52.907Z,14.30
2018-05-08T04:25:27.326Z,14.30
2018-05-08T04:28:01.135Z,14.30
2018-05-08T04:30:34.730Z,14.30
2018-05-08T04:33:08.430Z,14.30
2018-05-08T04:35:42.007Z,14.20
2018-05-08T04:38:15.748Z,14.30
2018-05-08T04:40:49.270Z,14.40
2018-05-08T04:43:22.948Z,14.40
2018-05-08T04:45:56.632Z,14.50
2018-05-08T04:48:30.355Z,14.50
2018-05-08T04:51:04.158Z,14.50
2018-05-08T04:53:37.658Z,14.60
2018-05-08T04:56:11.363Z,14.70
2018-05-08T04:58:45.166Z,14.80
2018-05-08T05:01:18.884Z,14.80
2018-05-08T05:03:52.439Z,14.80
2018-05-08T05:06:26.880Z,14.90
2018-05-08T05:09:00.586Z,14.90
2018-05-08T05:11:34.392Z,14.90
2018-05-08T05:14:08.068Z,15.00
2018-05-08T05:16:41.692Z,15.10
2018-05-08T05:19:15.615Z,15.10
2018-05-08T05:21:49.619Z,15.20
2018-05-08T05:24:23.229Z,15.30
2018-05-08T05:26:56.745Z,15.30
2018-05-08T05:29:30.299Z,15.50
2018-05-08T05:32:03.899Z,15.50
2018-05-08T05:34:38.433Z,15.60
2018-05-08T05:37:12.250Z,15.60
2018-05-08T05:39:46.545Z,15.70
2018-05-08T05:42:20.146Z,15.70
2018-05-08T05:44:54.077Z,15.90
2018-05-08T05:47:27.760Z,16.00
2018-05-08T05:50:01.692Z,16.10
2018-05-08T05:52:35.491Z,16.10
2018-05-08T05:55:08.980Z,16.20
2018-05-08T05:57:42.575Z,16.30
2018-05-08T06:00:16.090Z,16.30
2018-05-08T06:02:49.707Z,16.40
2018-05-08T06:05:24.802Z,16.50
2018-05-08T06:07:58.530Z,16.50
2018-05-08T06:10:32.538Z,16.60
2018-05-08T06:13:06.138Z,16.60
2018-05-08T06:15:39.631Z,16.70
2018-05-08T06:18:13.232Z,16.80
2018-05-08T06:20:46.838Z,16.80
2018-05-08T06:23:20.422Z,16.90
2018-05-08T06:25:54.018Z,17.00
2018-05-08T06:28:27.687Z,17.00
2018-05-08T06:31:01.350Z,17.10
2018-05-08T06:33:35.062Z,17.10
2018-05-08T06:36:08.618Z,17.30
2018-05-08T06:38:42.354Z,17.30
2018-05-08T06:41:15.956Z,17.30
2018-05-08T06:43:49.664Z,17.40
2018-05-08T06:46:23.222Z,17.50
2018-05-08T06:48:56.848Z,17.60
2018-05-08T06:51:30.439Z,17.60
2018-05-08T06:54:04.987Z,17.80
2018-05-08T06:56:38.627Z,17.70
2018-05-08T06:59:12.275Z,17.90
2018-05-08T07:01:45.864Z,18.00
2018-05-08T07:04:19.471Z,18.00
2018-05-08T07:06:53.195Z,18.10
2018-05-08T07:09:26.820Z,18.10
2018-05-08T07:12:00.543Z,18.30
2018-05-08T07:14:34.202Z,18.40
2018-05-08T07:17:07.803Z,18.40
2018-05-08T07:19:42.326Z,18.60
2018-05-08T07:22:15.918Z,18.50
2018-05-08T07:24:49.471Z,18.70
2018-05-08T07:27:24.665Z,18.90
2018-05-08T07:29:58.265Z,18.90
2018-05-08T07:32:31.858Z,19.00
2018-05-08T07:35:05.602Z,19.10
2018-05-08T07:37:39.137Z,19.20
2018-05-08T07:40:12.747Z,19.40
2018-05-08T07:42:46.367Z,19.40
2018-05-08T07:45:19.981Z,19.50
2018-05-08T07:47:53.671Z,19.60
2018-05-08T07:50:27.269Z,19.80
2018-05-08T07:53:00.879Z,19.80
2018-05-08T07:55:34.702Z,20.00
2018-05-08T07:58:08.364Z,20.00
2018-05-08T08:00:42.091Z,20.10
2018-05-08T08:03:15.913Z,20.20
2018-05-08T08:05:49.408Z,20.30
2018-05-08T08:08:23.087Z,20.40
2018-05-08T08:10:56.689Z,20.50
2018-05-08T08:13:30.366Z,20.70
2018-05-08T08:16:04.131Z,20.80
2018-05-08T08:18:37.974Z,20.90
2018-05-08T08:21:11.813Z,20.90
2018-05-08T08:23:45.622Z,21.10
2018-05-08T08:26:20.138Z,21.30
2018-05-08T08:28:53.744Z,21.20
2018-05-08T08:31:27.546Z,21.30
2018-05-08T08:34:01.834Z,21.50
2018-05-08T08:36:35.660Z,21.50
2018-05-08T08:39:09.438Z,21.60
2018-05-08T08:41:42.974Z,21.80
2018-05-08T08:44:17.603Z,22.00
2018-05-08T08:46:52.003Z,22.00
2018-05-08T08:49:25.525Z,22.00
2018-05-08T08:51:59.055Z,22.10
2018-05-08T08:54:32.652Z,22.20
2018-05-08T08:57:06.428Z,22.40
2018-05-08T08:59:40.242Z,22.40
2018-05-08T09:02:14.040Z,22.60
2018-05-08T09:04:48.335Z,22.80
2018-05-08T09:07:21.942Z,22.80
2018-05-08T09:09:55.498Z,23.00
2018-05-08T09:12:29.258Z,23.00
2018-05-08T09:15:03.066Z,23.20
2018-05-08T09:17:36.671Z,23.30
2018-05-08T09:20:10.262Z,23.50
2018-05-08T09:22:44.071Z,23.50
2018-05-08T09:25:18.680Z,23.70
2018-05-08T09:27:52.297Z,23.70
2018-05-08T09:30:26.107Z,23.80
2018-05-08T09:32:59.729Z,23.90
2018-05-08T09:35:33.146Z,24.00
2018-05-08T09:38:07.106Z,24.10
2018-05-08T09:40:40.710Z,24.10
2018-05-08T09:43:14.319Z,24.30
2018-05-08T09:45:48.114Z,24.40
2018-05-08T09:48:21.923Z,24.60
2018-05-08T09:50:56.178Z,24.80
2018-05-08T09:53:29.939Z,24.80
2018-05-08T09:56:04.434Z,25.10
2018-05-08T09:58:38.854Z,25.30
2018-05-08T10:01:13.402Z,25.10
2018-05-08T10:03:46.957Z,25.10
2018-05-08T10:06:20.696Z,25.20
2018-05-08T10:08:54.413Z,25.40
2018-05-08T10:11:28.118Z,25.50
2018-05-08T10:14:01.824Z,25.50
2018-05-08T10:16:35.527Z,25.40
2018-05-08T10:19:09.114Z,25.60
2018-05-08T10:21:42.729Z,25.70
2018-05-08T10:24:16.428Z,25.60
2018-05-08T10:26:50.731Z,25.90
2018-05-08T10:29:24.311Z,26.10
2018-05-08T10:31:58.046Z,26.10
2018-05-08T10:34:32.467Z,26.30
2018-05-08T10:37:06.147Z,26.30
2018-05-08T10:39:39.891Z,26.40
2018-05-08T10:42:13.420Z,26.50
2018-05-08T10:44:47.104Z,26.60
2018-05-08T10:47:20.886Z,26.60
2018-05-08T10:49:54.694Z,26.50
2018-05-08T10:52:28.493Z,26.60
2018-05-08T10:55:02.944Z,26.90
2018-05-08T10:57:36.785Z,26.90
2018-05-08T11:00:11.247Z,27.00
2018-05-08T11:02:45.765Z,27.10
2018-05-08T11:05:19.372Z,27.10
2018-05-08T11:07:53.176Z,27.20
2018-05-08T11:10:26.873Z,27.20
2018-05-08T11:13:00.448Z,27.20
2018-05-08T11:15:34.174Z,27.40
2018-05-08T11:18:07.851Z,27.50
2018-05-08T11:20:42.403Z,27.60
2018-05-08T11:23:15.912Z,27.60
2018-05-08T11:25:49.613Z,27.50
2018-05-08T11:28:23.614Z,27.60
2018-05-08T11:30:57.427Z,27.70
2018-05-08T11:33:31.028Z,27.90
2018-05-08T11:36:10.450Z,28.10
2018-05-08T11:38:44.157Z,28.20
2018-05-08T11:41:17.967Z,28.00
2018-05-08T11:43:51.845Z,27.90
2018-05-08T11:46:25.466Z,28.10
2018-05-08T11:48:59.183Z,28.20
2018-05-08T11:51:33.598Z,28.50
2018-05-08T11:54:07.211Z,28.40
2018-05-08T11:56:40.834Z,28.30
2018-05-08T11:59:14.614Z,28.40
2018-05-08T12:01:48.919Z,28.70
2018-05-08T12:04:23.455Z,28.80
2018-05-08T12:06:57.090Z,28.80
2018-05-08T12:09:30.856Z,29.00
2018-05-08T12:12:04.486Z,29.00
2018-05-08T12:14:38.883Z,29.10
2018-05-08T12:17:12.683Z,29.10
2018-05-08T12:19:46.286Z,29.20
2018-05-08T12:22:19.887Z,29.40
2018-05-08T12:24:53.582Z,29.30
2018-05-08T12:27:28.111Z,29.60
2018-05-08T12:30:01.615Z,29.50
2018-05-08T12:32:35.283Z,29.70
2018-05-08T12:35:09.119Z,29.70
2018-05-08T12:37:42.926Z,29.80
2018-05-08T12:40:16.596Z,30.00
2018-05-08T12:42:51.027Z,30.20
2018-05-08T12:45:24.579Z,30.20
2018-05-08T12:47:58.243Z,30.10
2018-05-08T12:50:31.902Z,30.00
2018-05-08T12:53:06.263Z,30.10
2018-05-08T12:55:39.763Z,30.10
2018-05-08T12:58:13.569Z,30.30
2018-05-08T13:00:47.179Z,30.40
2018-05-08T13:03:20.773Z,30.50
2018-05-08T13:05:54.782Z,30.10
2018-05-08T13:08:28.589Z,30.10
2018-05-08T13:11:02.175Z,30.40
2018-05-08T13:13:35.712Z,30.60
2018-05-08T13:16:09.390Z,30.60
2018-05-08T13:18:43.402Z,30.60
2018-05-08T13:21:17.212Z,30.80
2018-05-08T13:23:51.019Z,30.60
2018-05-08T13:26:24.615Z,30.30
2018-05-08T13:28:58.119Z,30.30
2018-05-08T13:31:31.817Z,30.50
2018-05-08T13:34:06.310Z,30.60
2018-05-08T13:36:40.096Z,30.60
2018-05-08T13:39:14.475Z,30.30
2018-05-08T13:41:48.779Z,30.50
2018-05-08T13:44:22.282Z,30.50
2018-05-08T13:46:56.078Z,30.70
2018-05-08T13:49:29.895Z,30.60
2018-05-08T13:52:03.692Z,30.60
2018-05-08T13:54:37.245Z,30.50
2018-05-08T13:57:10.820Z,30.50
2018-05-08T13:59:44.494Z,30.40
2018-05-08T14:02:18.011Z,30.60
2018-05-08T14:04:51.563Z,30.50
2018-05-08T14:07:25.303Z,30.40
2018-05-08T14:09:58.894Z,30.20
2018-05-08T14:12:32.395Z,30.60
2018-05-08T14:15:06.304Z,30.60
2018-05-08T14:17:40.114Z,30.60
2018-05-08T14:20:13.823Z,30.60
2018-05-08T14:22:47.395Z,30.60
2018-05-08T14:25:20.888Z,30.60
2018-05-08T14:27:54.724Z,30.40
2018-05-08T14:30:28.527Z,30.50
2018-05-08T14:33:02.149Z,30.20
2018-05-08T14:35:35.730Z,30.30
2018-05-08T14:38:09.419Z,30.50
2018-05-08T14:40:43.035Z,30.60
2018-05-08T14:43:16.735Z,30.70
2018-05-08T14:45:50.520Z,30.80
2018-05-08T14:48:24.143Z,30.80
2018-05-08T14:50:57.747Z,30.80
2018-05-08T14:53:32.251Z,30.80
2018-05-08T14:56:05.829Z,30.70
2018-05-08T14:58:39.459Z,30.70
2018-05-08T15:01:13.030Z,30.60
2018-05-08T15:03:46.610Z,30.60
2018-05-08T15:06:20.326Z,30.80
2018-05-08T15:08:54.171Z,30.60
2018-05-08T15:11:27.980Z,30.60
2018-05-08T15:14:01.784Z,30.50
2018-05-08T15:16:36.292Z,30.70
2018-05-08T15:19:10.211Z,30.70
2018-05-08T15:21:43.789Z,30.70
2018-05-08T15:24:17.307Z,30.70
2018-05-08T15:26:50.959Z,30.60
2018-05-08T15:29:24.523Z,30.30
2018-05-08T15:31:59.650Z,30.40
2018-05-08T15:34:33.251Z,30.40
2018-05-08T15:37:07.060Z,30.40
2018-05-08T15:39:40.748Z,30.40
2018-05-08T15:42:14.477Z,30.30
2018-05-08T15:44:48.254Z,30.30
2018-05-08T15:47:21.950Z,30.40
2018-05-08T15:49:55.518Z,30.40
2018-05-08T15:52:30.703Z,30.30
2018-05-08T15:55:04.518Z,30.30
2018-05-08T15:57:38.118Z,30.60
2018-05-08T16:00:11.770Z,30.50
2018-05-08T16:02:45.530Z,30.50
2018-05-08T16:05:20.151Z,30.30
2018-05-08T16:07:53.650Z,30.20
2018-05-08T16:10:27.185Z,30.00
2018-05-08T16:13:00.750Z,30.20
2018-05-08T16:15:34.438Z,30.50
2018-05-08T16:18:08.159Z,30.30
2018-05-08T16:20:41.675Z,30.20
2018-05-08T16:23:15.354Z,30.30
2018-05-08T16:25:49.166Z,30.30
2018-05-08T16:28:23.647Z,30.20
2018-05-08T16:30:57.252Z,30.20
2018-05-08T16:33:30.987Z,30.10
2018-05-08T16:36:04.786Z,30.00
2018-05-08T16:38:38.424Z,29.90
2018-05-08T16:41:12.082Z,30.00
2018-05-08T16:43:45.778Z,29.90
2018-05-08T16:46:20.210Z,29.90
2018-05-08T16:48:53.890Z,29.80
2018-05-08T16:51:28.954Z,29.90
2018-05-08T16:54:02.531Z,29.90
2018-05-08T16:56:36.065Z,29.60
2018-05-08T16:59:09.658Z,29.50
2018-05-08T17:01:43.466Z,29.60
2018-05-08T17:04:16.960Z,29.50
2018-05-08T17:06:50.662Z,29.50
2018-05-08T17:09:25.309Z,29.50
2018-05-08T17:11:59.612Z,29.40
2018-05-08T17:14:34.744Z,29.40
2018-05-08T17:17:08.478Z,29.40
2018-05-08T17:19:42.150Z,29.20
2018-05-08T17:22:15.688Z,29.10
2018-05-08T17:24:50.242Z,29.00
2018-05-08T17:27:24.063Z,29.00
2018-05-08T17:29:57.782Z,28.80
2018-05-08T17:32:31.574Z,28.60
2018-05-08T17:35:05.186Z,28.30
2018-05-08T17:37:38.690Z,28.10
2018-05-08T17:40:12.263Z,27.70
2018-05-08T17:42:46.001Z,27.80
2018-05-08T17:45:19.590Z,27.70
2018-05-08T17:47:53.282Z,27.60
2018-05-08T17:50:26.796Z,27.40
2018-05-08T17:53:00.330Z,27.20
2018-05-08T17:55:33.923Z,27.00
2018-05-08T17:58:07.598Z,27.00
2018-05-08T18:00:41.400Z,27.00
2018-05-08T18:03:15.849Z,26.60
2018-05-08T18:05:50.451Z,26.40
2018-05-08T18:08:24.136Z,26.40
2018-05-08T18:10:57.746Z,26.40
2018-05-08T18:13:31.658Z,26.30
2018-05-08T18:16:05.263Z,26.30
2018-05-08T18:18:39.576Z,26.00
2018-05-08T18:21:13.977Z,25.80
2018-05-08T18:23:47.697Z,25.80
2018-05-08T18:26:21.192Z,25.90
2018-05-08T18:28:55.106Z,25.60
2018-05-08T18:31:28.779Z,25.70
2018-05-08T18:34:03.945Z,25.50
2018-05-08T18:36:37.568Z,25.50
2018-05-08T18:39:11.352Z,25.40
2018-05-08T18:41:45.043Z,25.40
2018-05-08T18:44:18.762Z,25.20
2018-05-08T18:46:52.363Z,25.10
2018-05-08T18:49:26.219Z,25.00
2018-05-08T18:52:00.453Z,25.00
2018-05-08T18:54:34.179Z,24.90
2018-05-08T18:57:07.788Z,25.00
2018-05-08T18:59:41.497Z,24.90
2018-05-08T19:02:15.189Z,24.80
2018-05-08T19:04:48.903Z,24.60
2018-05-08T19:07:22.506Z,24.50
2018-05-08T19:09:56.076Z,24.40
2018-05-08T19:12:30.482Z,24.30
2018-05-08T19:15:09.841Z,24.30
2018-05-08T19:17:43.569Z,24.20
2018-05-08T19:20:17.254Z,24.10
2018-05-08T19:22:51.032Z,24.00
2018-05-08T19:25:24.776Z,24.00
2018-05-08T19:28:04.939Z,23.90
2018-05-08T19:30:39.347Z,23.80
2018-05-08T19:33:12.947Z,23.80
2018-05-08T19:35:53.070Z,23.70
2018-05-08T19:38:27.407Z,23.70
2018-05-08T19:41:01.123Z,23.70
2018-05-08T19:43:34.719Z,23.50
2018-05-08T19:46:08.395Z,23.50
2018-05-08T19:48:42.099Z,23.40
2018-05-08T19:51:15.631Z,23.40
2018-05-08T19:53:49.174Z,23.30
2018-05-08T19:56:22.945Z,23.30
2018-05-08T19:58:56.730Z,23.20
2018-05-08T20:01:31.151Z,23.10
2018-05-08T20:04:04.642Z,23.10
2018-05-08T20:06:38.236Z,23.10
2018-05-08T20:09:11.922Z,23.10
2018-05-08T20:11:45.767Z,22.90
2018-05-08T20:14:19.438Z,22.80
2018-05-08T20:16:53.175Z,22.80
2018-05-08T20:19:26.810Z,22.70
2018-05-08T20:22:00.462Z,22.70
2018-05-08T20:24:34.133Z,22.60
2018-05-08T20:27:07.986Z,22.60
2018-05-08T20:29:42.462Z,22.40
2018-05-08T20:32:16.098Z,22.40
2018-05-08T20:34:49.790Z,22.30
2018-05-08T20:37:23.503Z,22.20
2018-05-08T20:39:57.215Z,22.20
2018-05-08T20:42:31.722Z,22.10
2018-05-08T20:45:05.431Z,22.10
2018-05-08T20:47:39.246Z,22.00
2018-05-08T20:50:13.054Z,21.90
2018-05-08T20:52:46.702Z,21.90
2018-05-08T20:55:20.263Z,21.80
2018-05-08T20:57:53.983Z,21.70
2018-05-08T21:00:27.668Z,21.60
2018-05-08T21:03:01.964Z,21.40
2018-05-08T21:05:35.542Z,21.40
2018-05-08T21:08:09.986Z,21.40
2018-05-08T21:10:44.414Z,21.30
2018-05-08T21:13:18.830Z,21.20
2018-05-08T21:15:52.412Z,21.20
2018-05-08T21:18:26.027Z,21.10
2018-05-08T21:20:59.603Z,21.10
2018-05-08T21:23:33.347Z,21.00
2018-05-08T21:26:07.635Z,20.90
2018-05-08T21:28:47.190Z,20.90
2018-05-08T21:31:20.788Z,20.80
2018-05-08T21:33:54.507Z,20.80
2018-05-08T21:36:28.267Z,20.70
2018-05-08T21:39:01.994Z,20.70
2018-05-08T21:41:35.618Z,20.60
2018-05-08T21:44:09.331Z,20.50
2018-05-08T21:46:44.559Z,20.40
2018-05-08T21:49:18.243Z,20.40
2018-05-08T21:51:51.969Z,20.40
2018-05-08T21:54:25.771Z,20.30
2018-05-08T21:57:00.054Z,20.20
2018-05-08T21:59:33.816Z,20.20
2018-05-08T22:02:07.380Z,20.20
2018-05-08T22:04:41.083Z,20.10
2018-05-08T22:07:14.660Z,20.00
2018-05-08T22:09:48.494Z,20.00
2018-05-08T22:12:22.199Z,20.00
2018-05-08T22:14:55.802Z,19.90
2018-05-08T22:17:29.480Z,19.90
2018-05-08T22:20:03.137Z,19.90
2018-05-08T22:22:36.810Z,19.70
2018-05-08T22:25:10.514Z,19.70
2018-05-08T22:27:45.040Z,19.60
2018-05-08T22:30:18.642Z,19.60
2018-05-08T22:32:52.336Z,19.50
2018-05-08T22:35:27.468Z,19.40
2018-05-08T22:38:01.899Z,19.50
2018-05-08T22:40:35.706Z,19.40
2018-05-08T22:43:09.330Z,19.40
2018-05-08T22:45:43.114Z,19.40
2018-05-08T22:48:16.739Z,19.30
2018-05-08T22:50:50.519Z,19.30
2018-05-08T22:53:24.014Z,19.30
2018-05-08T22:55:57.718Z,19.20
2018-05-08T22:58:31.412Z,19.10
2018-05-08T23:01:05.124Z,18.60
2018-05-08T23:03:39.130Z,18.70
2018-05-08T23:06:12.810Z,18.90
2018-05-08T23:08:46.557Z,18.80
2018-05-08T23:11:20.844Z,18.70
2018-05-08T23:13:54.647Z,18.70
2018-05-08T23:16:28.436Z,18.70
2018-05-08T23:19:02.177Z,18.60
2018-05-08T23:21:35.984Z,18.60
2018-05-08T23:24:09.583Z,18.60
2018-05-08T23:26:43.391Z,18.50
2018-05-08T23:29:17.115Z,18.50
2018-05-08T23:31:50.634Z,18.50
2018-05-08T23:34:24.478Z,18.40
2018-05-08T23:36:58.207Z,18.50
2018-05-08T23:39:32.613Z,18.30
2018-05-08T23:42:06.424Z,18.30
2018-05-08T23:44:40.028Z,18.30
2018-05-08T23:47:13.826Z,18.20
2018-05-08T23:49:47.535Z,18.20
2018-05-08T23:52:21.108Z,18.10
2018-05-08T23:54:54.836Z,18.10
2018-05-08T23:57:28.646Z,18.00
